Time;durP1;ratioP1;P1;durP2;ratioP2;P2;SDS_P1;SDS_P2;PMS_P1;PMS_P2;Temp;Humidity;BMP_temperature;BMP_pressure;BME280_temperature;BME280_humidity;BME280_pressure;Samples;Min_cycle;Max_cycle;Signal;HPM_P1;HPM_P2
2023/08/18 00:00:00;;;;;;;7.65;4.28;;;16.90;99.90;;;;;;5052837;28;20045;-74
2023/08/18 00:02:26;;;;;;;9.85;4.78;;;16.90;99.90;;;;;;5051871;28;20049;-74
2023/08/18 00:04:52;;;;;;;10.45;4.80;;;16.90;99.90;;;;;;5052334;28;20124;-74
2023/08/18 00:07:18;;;;;;;9.90;4.32;;;16.90;99.90;;;;;;5056271;28;20045;-74
2023/08/18 00:09:44;;;;;;;8.07;4.68;;;16.90;99.90;;;;;;5071755;28;20041;-74
2023/08/18 00:12:10;;;;;;;8.60;4.47;;;16.90;99.90;;;;;;5055239;28;20056;-74
2023/08/18 00:14:36;;;;;;;7.75;4.28;;;16.90;99.90;;;;;;5071840;28;20045;-74
2023/08/18 00:17:02;;;;;;;8.77;4.70;;;16.90;99.90;;;;;;5071887;28;20565;-74
2023/08/18 00:19:30;;;;;;;7.05;4.45;;;16.90;99.90;;;;;;5071581;28;20523;-74
2023/08/18 00:21:56;;;;;;;12.23;4.70;;;16.90;99.90;;;;;;5071670;28;20094;-74
2023/08/18 00:24:21;;;;;;;9.90;4.85;;;16.90;99.90;;;;;;5071346;28;20040;-74
2023/08/18 00:26:47;;;;;;;6.82;3.80;;;16.80;99.90;;;;;;5071633;28;20597;-74
2023/08/18 00:29:13;;;;;;;8.25;4.15;;;16.90;99.90;;;;;;5054860;28;20048;-74
2023/08/18 00:31:40;;;;;;;9.75;4.35;;;16.80;99.90;;;;;;5071045;28;20440;-74
2023/08/18 00:34:08;;;;;;;8.35;4.25;;;16.80;99.90;;;;;;5054669;28;20056;-73
2023/08/18 00:36:34;;;;;;;5.90;3.90;;;16.80;99.90;;;;;;5071418;28;20037;-73
2023/08/18 00:39:01;;;;;;;8.20;3.72;;;16.80;99.90;;;;;;5055724;28;20128;-73
2023/08/18 00:41:27;;;;;;;7.85;4.18;;;16.80;99.90;;;;;;5071386;28;20478;-74
2023/08/18 00:43:52;;;;;;;7.35;4.20;;;16.80;99.90;;;;;;5071172;28;20051;-73
2023/08/18 00:46:18;;;;;;;7.18;4.07;;;16.80;99.90;;;;;;5071553;28;20040;-74
2023/08/18 00:48:44;;;;;;;7.97;4.40;;;16.80;99.90;;;;;;5054668;28;20060;-74
2023/08/18 00:51:11;;;;;;;7.72;3.85;;;16.70;99.90;;;;;;5055621;28;20049;-74
2023/08/18 00:53:39;;;;;;;10.70;4.55;;;16.80;99.90;;;;;;5067903;28;20044;-74
2023/08/18 00:56:06;;;;;;;12.48;4.63;;;16.70;99.90;;;;;;5091447;28;20061;-74
2023/08/18 00:58:33;;;;;;;8.38;4.63;;;16.70;99.90;;;;;;5074127;28;20496;-73
2023/08/18 01:00:59;;;;;;;10.60;4.78;;;16.70;99.90;;;;;;5074225;28;20049;-74
2023/08/18 01:03:25;;;;;;;8.20;4.38;;;16.60;99.90;;;;;;5090900;28;20048;-74
2023/08/18 01:05:51;;;;;;;7.97;4.15;;;16.60;99.90;;;;;;5090815;28;20052;-74
2023/08/18 01:08:17;;;;;;;8.48;4.65;;;16.50;99.90;;;;;;5090777;28;20078;-73
2023/08/18 01:11:05;;;;;;;10.23;4.80;;;16.50;99.90;;;;;;5090921;28;20492;-73
2023/08/18 01:13:54;;;;;;;13.40;4.05;;;16.40;99.90;;;;;;5075241;28;20033;-74
2023/08/18 01:16:27;;;;;;;9.48;4.30;;;16.40;99.90;;;;;;5073639;28;20052;-73
2023/08/18 01:18:53;;;;;;;;;;;16.40;99.90;;;;;;5074169;28;20045;-74
2023/08/18 01:21:21;;;;;;;6.82;4.13;;;16.40;99.90;;;;;;5073937;28;19920;-73
2023/08/18 01:23:47;;;;;;;9.45;4.40;;;16.40;99.90;;;;;;5073726;28;20048;-74
2023/08/18 01:26:12;;;;;;;8.05;4.13;;;16.40;99.90;;;;;;5090782;28;20040;-74
2023/08/18 01:28:39;;;;;;;8.88;4.20;;;16.50;99.90;;;;;;5074721;28;20438;-74
2023/08/18 01:31:15;;;;;;;10.07;4.22;;;16.50;99.90;;;;;;5089881;28;20498;-73
2023/08/18 01:33:44;;;;;;;7.40;3.95;;;16.50;99.90;;;;;;5073448;28;20127;-74
2023/08/18 01:36:21;;;;;;;9.63;4.22;;;16.50;99.90;;;;;;5073688;28;20040;-74
2023/08/18 01:38:50;;;;;;;9.68;3.65;;;16.50;99.90;;;;;;5074677;28;20079;-73
2023/08/18 01:41:22;;;;;;;9.73;3.77;;;16.50;99.90;;;;;;5073241;28;20044;-73
2023/08/18 01:43:48;;;;;;;7.55;4.18;;;16.50;99.90;;;;;;5074549;28;20374;-74
2023/08/18 01:46:23;;;;;;;8.45;4.10;;;16.50;99.90;;;;;;5073203;28;20132;-74
2023/08/18 01:48:49;;;;;;;8.65;4.00;;;16.50;99.90;;;;;;5073421;28;20079;-74
2023/08/18 01:51:14;;;;;;;6.78;4.00;;;16.50;99.90;;;;;;5073182;28;20083;-74
2023/08/18 01:53:40;;;;;;;6.72;4.00;;;16.50;99.90;;;;;;5073215;28;20148;-74
2023/08/18 01:56:05;;;;;;;6.28;3.47;;;16.50;99.90;;;;;;5072999;28;20438;-74
2023/08/18 01:58:31;;;;;;;7.55;4.18;;;16.60;99.90;;;;;;5074289;28;20543;-74
2023/08/18 02:00:57;;;;;;;12.02;5.82;;;16.60;99.90;;;;;;5074043;28;20404;-74
2023/08/18 02:03:24;;;;;;;6.95;4.07;;;16.50;99.90;;;;;;5074192;28;20083;-74
2023/08/18 02:05:56;;;;;;;11.52;4.95;;;16.50;99.90;;;;;;5072929;28;20398;-73
2023/08/18 02:08:23;;;;;;;10.27;4.22;;;16.50;99.90;;;;;;5072793;28;20131;-73
2023/08/18 02:10:48;;;;;;;10.82;4.13;;;16.40;99.90;;;;;;5072769;28;20052;-73
2023/08/18 02:13:14;;;;;;;10.85;4.53;;;16.40;99.90;;;;;;5074032;28;20037;-74
2023/08/18 02:15:40;;;;;;;12.30;4.85;;;16.40;99.90;;;;;;5072858;28;20040;-74
2023/08/18 02:18:06;;;;;;;9.25;4.72;;;16.40;99.90;;;;;;5073990;28;20047;-74
2023/08/18 02:20:41;;;;;;;10.45;4.07;;;16.40;99.90;;;;;;5072545;28;20048;-74
2023/08/18 02:23:07;;;;;;;14.45;4.78;;;16.40;99.90;;;;;;5072785;28;20044;-74
2023/08/18 02:25:32;;;;;;;11.15;4.75;;;16.40;99.90;;;;;;5072745;28;20439;-74
2023/08/18 02:27:58;;;;;;;9.23;4.70;;;16.30;99.90;;;;;;5071945;28;20052;-73
2023/08/18 02:30:30;;;;;;;9.23;4.40;;;16.30;99.90;;;;;;5072618;28;20040;-74
2023/08/18 02:32:58;;;;;;;8.00;4.00;;;16.30;99.90;;;;;;5074361;28;20131;-73
2023/08/18 02:35:23;;;;;;;9.93;4.13;;;16.30;99.90;;;;;;5072500;28;20337;-74
2023/08/18 02:37:49;;;;;;;9.20;4.10;;;16.30;99.90;;;;;;5072405;28;20455;-74
2023/08/18 02:40:15;;;;;;;7.93;4.20;;;16.30;99.90;;;;;;5072379;28;20047;-74
2023/08/18 02:42:41;;;;;;;10.60;4.80;;;16.30;99.90;;;;;;5072422;28;20044;-73
2023/08/18 02:45:07;;;;;;;7.47;4.00;;;16.30;99.90;;;;;;5073668;28;20048;-73
2023/08/18 02:47:32;;;;;;;8.73;4.22;;;16.30;99.90;;;;;;5073370;28;20120;-74
2023/08/18 02:49:58;;;;;;;11.38;5.15;;;16.30;99.90;;;;;;5073309;28;20415;-74
2023/08/18 02:52:24;;;;;;;7.93;4.15;;;16.30;99.90;;;;;;5073375;28;20044;-74
2023/08/18 02:54:49;;;;;;;9.32;4.65;;;16.30;99.90;;;;;;5072234;28;20040;-74
2023/08/18 02:57:15;;;;;;;16.42;5.28;;;16.30;99.90;;;;;;5072422;28;20059;-74
2023/08/18 02:59:41;;;;;;;7.75;4.22;;;16.40;99.90;;;;;;5072200;28;20396;-74
2023/08/18 03:02:06;;;;;;;8.50;4.30;;;16.40;99.90;;;;;;5072261;28;20036;-74
2023/08/18 03:04:32;;;;;;;8.32;4.72;;;16.40;99.90;;;;;;5072068;28;20056;-74
2023/08/18 03:07:00;;;;;;;10.32;4.47;;;16.40;99.90;;;;;;5072023;28;20076;-74
2023/08/18 03:09:26;;;;;;;10.15;4.68;;;16.50;99.90;;;;;;5071958;28;20406;-74
2023/08/18 03:11:51;;;;;;;11.77;4.97;;;16.50;99.90;;;;;;5072383;28;20499;-74
2023/08/18 03:14:17;;;;;;;9.43;4.32;;;16.50;99.90;;;;;;5072316;28;20076;-74
2023/08/18 03:16:43;;;;;;;10.70;5.18;;;16.50;99.90;;;;;;5071909;28;20045;-74
2023/08/18 03:19:09;;;;;;;9.85;4.78;;;16.50;99.90;;;;;;5073293;28;20052;-74
2023/08/18 03:21:34;;;;;;;13.23;5.10;;;16.50;99.90;;;;;;5071925;28;20044;-74
2023/08/18 03:24:00;;;;;;;10.10;5.50;;;16.60;99.90;;;;;;5071969;28;20052;-74
2023/08/18 03:26:26;;;;;;;10.15;5.97;;;16.60;99.90;;;;;;5072001;28;20044;-74
2023/08/18 03:28:52;;;;;;;12.88;5.35;;;16.60;99.90;;;;;;5071956;28;20135;-74
2023/08/18 03:31:18;;;;;;;15.35;6.00;;;16.60;99.90;;;;;;5071534;28;20064;-74
2023/08/18 03:33:45;;;;;;;9.88;4.85;;;16.60;99.90;;;;;;5071798;28;20060;-74
2023/08/18 03:36:11;;;;;;;13.93;6.05;;;16.60;99.90;;;;;;5071621;28;20407;-74
2023/08/18 03:38:36;;;;;;;13.95;5.68;;;16.60;99.90;;;;;;5072386;28;20479;-74
2023/08/18 03:41:04;;;;;;;15.18;6.45;;;16.60;99.90;;;;;;5075694;28;20097;-73
2023/08/18 03:43:31;;;;;;;13.90;6.45;;;16.70;99.90;;;;;;5075862;28;20126;-74
2023/08/18 03:46:02;;;;;;;12.20;6.40;;;16.70;99.90;;;;;;5075438;28;20163;-74
2023/08/18 03:48:28;;;;;;;13.27;6.10;;;16.70;99.90;;;;;;5076632;28;20498;-74
2023/08/18 03:50:54;;;;;;;13.00;6.70;;;16.70;99.90;;;;;;5075481;28;20045;-74
2023/08/18 03:53:22;;;;;;;12.38;6.95;;;16.70;99.90;;;;;;5075659;28;20391;-74
2023/08/18 03:55:59;;;;;;;15.25;6.18;;;16.70;99.90;;;;;;5076578;28;20052;-74
2023/08/18 03:58:25;;;;;;;15.00;6.55;;;16.70;99.90;;;;;;5075837;28;20049;-74
2023/08/18 04:00:50;;;;;;;12.82;7.18;;;16.70;99.90;;;;;;5075294;28;20294;-74
2023/08/18 04:03:16;;;;;;;19.48;7.82;;;16.70;99.90;;;;;;5075379;28;20044;-74
2023/08/18 04:05:48;;;;;;;14.57;6.45;;;16.70;99.90;;;;;;5075225;28;20085;-74
2023/08/18 04:08:16;;;;;;;20.52;7.65;;;16.70;99.90;;;;;;5075278;28;20044;-74
2023/08/18 04:10:44;;;;;;;13.82;6.40;;;16.70;99.90;;;;;;5076293;28;20490;-74
2023/08/18 04:13:10;;;;;;;18.30;7.82;;;16.70;99.90;;;;;;5075663;28;20522;-74
2023/08/18 04:15:36;;;;;;;17.33;8.20;;;16.70;99.90;;;;;;5074910;28;20487;-74
2023/08/18 04:18:02;;;;;;;17.65;7.03;;;16.70;99.90;;;;;;5075431;28;20048;-74
2023/08/18 04:20:29;;;;;;;14.27;7.15;;;16.80;99.90;;;;;;5076188;28;20393;-74
2023/08/18 04:22:54;;;;;;;16.75;6.40;;;16.80;99.90;;;;;;5074927;28;20049;-74
2023/08/18 04:25:20;;;;;;;12.57;6.00;;;16.80;99.90;;;;;;5074658;28;20051;-74
2023/08/18 04:27:45;;;;;;;13.77;6.07;;;16.80;99.90;;;;;;5074413;28;20052;-74
2023/08/18 04:30:12;;;;;;;12.82;5.65;;;16.80;99.90;;;;;;5074172;28;20074;-74
2023/08/18 04:32:37;;;;;;;8.70;5.70;;;16.80;99.90;;;;;;5073091;28;20504;-74
2023/08/18 04:35:10;;;;;;;16.90;6.00;;;16.80;99.90;;;;;;5075626;28;20048;-73
2023/08/18 04:37:36;;;;;;;;;;;16.80;99.90;;;;;;5074821;28;20066;-74
2023/08/18 04:40:04;;;;;;;14.95;5.05;;;16.80;99.90;;;;;;5074627;28;20011;-73
2023/08/18 04:42:29;;;;;;;11.02;5.50;;;16.80;99.90;;;;;;5091102;28;20052;-74
2023/08/18 04:44:55;;;;;;;15.02;5.70;;;16.80;99.90;;;;;;5075723;28;20144;-74
2023/08/18 04:47:20;;;;;;;11.52;5.85;;;16.80;99.90;;;;;;5074447;28;20084;-73
2023/08/18 04:49:46;;;;;;;11.38;6.05;;;16.80;99.90;;;;;;5074295;28;20044;-73
2023/08/18 04:52:15;;;;;;;13.15;5.97;;;16.80;99.90;;;;;;5073490;28;20492;-73
2023/08/18 04:54:41;;;;;;;13.77;5.88;;;16.90;99.90;;;;;;5075575;28;20110;-74
2023/08/18 04:57:10;;;;;;;12.50;5.68;;;16.80;99.90;;;;;;5075217;28;20393;-74
2023/08/18 04:59:35;;;;;;;20.88;7.13;;;16.90;99.90;;;;;;5075267;28;20040;-74
2023/08/18 05:02:01;;;;;;;17.35;5.97;;;16.80;99.90;;;;;;5075392;28;20097;-74
2023/08/18 05:04:27;;;;;;;11.85;5.50;;;16.80;99.90;;;;;;5075434;28;20040;-74
2023/08/18 05:06:52;;;;;;;19.08;5.88;;;16.80;99.90;;;;;;5074238;28;20107;-73
2023/08/18 05:09:18;;;;;;;15.25;6.32;;;16.80;99.90;;;;;;5073827;28;20633;-74
2023/08/18 05:11:43;;;;;;;13.05;6.35;;;16.90;99.90;;;;;;5073766;28;20138;-74
2023/08/18 05:14:09;;;;;;;16.40;6.78;;;16.90;99.90;;;;;;5073815;28;20052;-74
2023/08/18 05:16:35;;;;;;;13.98;6.82;;;16.90;99.90;;;;;;5073573;28;20048;-73
2023/08/18 05:19:04;;;;;;;16.40;6.88;;;16.80;99.90;;;;;;5073853;28;20043;-73
2023/08/18 05:21:29;;;;;;;17.73;7.43;;;16.90;99.90;;;;;;5073645;28;20071;-73
2023/08/18 05:23:55;;;;;;;18.15;6.93;;;16.90;99.90;;;;;;5073697;28;20384;-74
2023/08/18 05:26:21;;;;;;;12.82;6.32;;;16.90;99.90;;;;;;5073453;28;20072;-74
2023/08/18 05:28:49;;;;;;;13.20;6.50;;;16.90;99.90;;;;;;5073637;28;20048;-74
2023/08/18 05:31:18;;;;;;;13.48;6.78;;;16.90;99.90;;;;;;5073032;28;20052;-74
2023/08/18 05:33:43;;;;;;;11.90;6.47;;;16.90;99.90;;;;;;5073282;28;20479;-74
2023/08/18 05:36:09;;;;;;;16.02;6.70;;;16.90;99.90;;;;;;5074646;28;20056;-73
2023/08/18 05:38:34;;;;;;;16.83;6.93;;;16.90;99.90;;;;;;5073257;28;20050;-73
2023/08/18 05:41:11;;;;;;;10.95;5.97;;;16.90;99.90;;;;;;5073289;28;20135;-74
2023/08/18 05:43:37;;;;;;;14.73;7.28;;;16.90;99.90;;;;;;5073390;28;20135;-73
2023/08/18 05:46:03;;;;;;;16.77;7.35;;;16.90;99.90;;;;;;5073246;28;20483;-73
2023/08/18 05:48:30;;;;;;;16.13;7.75;;;17.00;99.90;;;;;;5072992;28;20056;-73
2023/08/18 05:50:56;;;;;;;19.42;8.20;;;17.00;99.90;;;;;;5074371;28;20040;-73
2023/08/18 05:53:22;;;;;;;19.20;7.25;;;17.00;99.90;;;;;;5073153;28;20040;-73
2023/08/18 05:55:48;;;;;;;18.52;7.85;;;17.00;99.90;;;;;;5074055;28;20130;-73
2023/08/18 05:58:14;;;;;;;20.73;8.60;;;17.00;99.90;;;;;;5073034;28;20044;-74
2023/08/18 06:00:39;;;;;;;21.05;8.05;;;17.00;99.90;;;;;;5072916;28;20045;-73
2023/08/18 06:03:05;;;;;;;17.98;9.18;;;17.00;99.90;;;;;;5072710;28;20044;-73
2023/08/18 06:05:33;;;;;;;17.52;7.53;;;17.00;99.90;;;;;;5074183;28;20093;-74
2023/08/18 06:07:58;;;;;;;22.80;7.90;;;17.10;99.90;;;;;;5074130;28;20059;-74
2023/08/18 06:10:24;;;;;;;17.58;7.75;;;17.10;99.90;;;;;;5073957;28;20036;-74
2023/08/18 06:12:50;;;;;;;24.13;8.18;;;17.10;99.90;;;;;;5072529;28;20082;-74
2023/08/18 06:15:17;;;;;;;18.10;8.25;;;17.10;99.90;;;;;;5073724;28;20076;-74
2023/08/18 06:17:43;;;;;;;17.15;8.70;;;17.10;99.90;;;;;;5073701;28;20522;-74
2023/08/18 06:20:09;;;;;;;19.77;8.15;;;17.10;99.90;;;;;;5073907;28;20048;-74
2023/08/18 06:22:36;;;;;;;20.10;8.48;;;17.20;99.90;;;;;;5073902;28;20041;-74
2023/08/18 06:25:03;;;;;;;18.00;8.43;;;17.20;99.90;;;;;;5073603;28;20083;-73
2023/08/18 06:27:29;;;;;;;22.05;8.73;;;17.20;99.90;;;;;;5072303;28;20098;-74
2023/08/18 06:29:54;;;;;;;22.95;9.20;;;17.20;99.90;;;;;;5072269;28;20040;-74
2023/08/18 06:32:23;;;;;;;21.15;9.20;;;17.20;99.90;;;;;;5073575;28;20109;-74
2023/08/18 06:34:51;;;;;;;21.45;10.20;;;17.20;99.90;;;;;;5072577;28;20071;-73
2023/08/18 06:37:17;;;;;;;20.02;9.40;;;17.20;99.90;;;;;;5071389;28;20048;-73
2023/08/18 06:39:43;;;;;;;20.77;9.98;;;17.20;99.90;;;;;;5071429;28;20044;-72
2023/08/18 06:42:08;;;;;;;19.38;9.50;;;17.20;99.90;;;;;;5073472;28;20094;-72
2023/08/18 06:44:34;;;;;;;21.73;10.18;;;17.20;99.90;;;;;;5071838;28;20052;-72
2023/08/18 06:47:01;;;;;;;21.50;9.15;;;17.20;99.90;;;;;;5071776;28;20048;-72
2023/08/18 06:49:26;;;;;;;20.17;10.75;;;17.30;99.90;;;;;;5071780;28;20041;-73
2023/08/18 06:51:52;;;;;;;22.05;11.02;;;17.30;99.90;;;;;;5071858;28;20048;-72
2023/08/18 06:54:18;;;;;;;25.38;11.50;;;17.30;99.90;;;;;;5073288;28;20064;-72
2023/08/18 06:56:44;;;;;;;26.10;11.48;;;17.30;99.90;;;;;;5071482;28;20064;-72
2023/08/18 06:59:13;;;;;;;25.25;12.18;;;17.30;99.90;;;;;;5071743;28;20037;-72
2023/08/18 07:01:39;;;;;;;24.63;12.70;;;17.30;99.90;;;;;;5071635;28;20045;-72
2023/08/18 07:04:05;;;;;;;33.58;13.30;;;17.30;99.90;;;;;;5072964;28;20499;-72
2023/08/18 07:06:31;;;;;;;26.77;12.55;;;17.30;99.90;;;;;;5073043;28;20052;-72
2023/08/18 07:08:57;;;;;;;28.13;13.25;;;17.30;99.90;;;;;;5073046;28;20041;-72
2023/08/18 07:11:23;;;;;;;28.23;11.98;;;17.30;99.90;;;;;;5071591;28;20056;-72
2023/08/18 07:13:48;;;;;;;27.42;13.82;;;17.40;99.90;;;;;;5072156;28;20040;-72
2023/08/18 07:16:14;;;;;;;28.58;12.85;;;17.30;99.90;;;;;;5075584;28;20054;-72
2023/08/18 07:18:40;;;;;;;27.30;13.23;;;17.30;99.90;;;;;;5075673;28;20123;-72
2023/08/18 07:21:05;;;;;;;31.77;14.13;;;17.30;99.90;;;;;;5092650;28;20044;-72
2023/08/18 07:23:31;;;;;;;31.35;14.00;;;17.40;99.90;;;;;;5075885;28;20091;-73
2023/08/18 07:25:57;;;;;;;23.40;12.13;;;17.40;99.90;;;;;;5075857;28;20427;-72
2023/08/18 07:28:22;;;;;;;32.17;12.82;;;17.40;99.90;;;;;;5075730;28;20507;-72
2023/08/18 07:30:48;;;;;;;25.60;11.85;;;17.50;99.90;;;;;;5076223;28;20482;-72
2023/08/18 07:33:14;;;;;;;26.70;12.93;;;17.60;99.90;;;;;;5076725;28;20060;-72
2023/08/18 07:35:39;;;;;;;25.20;12.48;;;17.60;99.90;;;;;;5075401;28;20082;-73
2023/08/18 07:38:05;;;;;;;25.13;11.85;;;17.70;99.90;;;;;;5076776;28;20048;-77
2023/08/18 07:40:31;;;;;;;30.38;14.90;;;17.70;99.90;;;;;;5075427;28;20066;-73
2023/08/18 07:42:56;;;;;;;28.05;14.60;;;17.70;99.90;;;;;;5075233;28;20476;-73
2023/08/18 07:45:22;;;;;;;25.30;13.93;;;17.70;99.90;;;;;;5075013;28;20048;-73
2023/08/18 07:47:48;;;;;;;28.60;16.08;;;17.80;99.90;;;;;;5074847;28;20055;-73
2023/08/18 07:50:23;;;;;;;27.50;15.07;;;17.80;99.90;;;;;;5082928;28;20051;-73
2023/08/18 07:52:49;;;;;;;36.80;16.20;;;17.80;99.90;;;;;;5073975;28;20067;-74
2023/08/18 07:55:15;;;;;;;32.03;16.02;;;17.80;99.90;;;;;;5064333;28;20166;-74
2023/08/18 07:57:41;;;;;;;29.15;16.90;;;17.80;99.90;;;;;;5081662;28;20055;-74
2023/08/18 08:00:26;;;;;;;29.63;15.45;;;17.90;99.90;;;;;;5067068;28;20044;-74
2023/08/18 08:02:52;;;;;;;30.83;16.25;;;17.90;99.90;;;;;;5064023;28;20091;-74
2023/08/18 08:05:20;;;;;;;29.27;14.70;;;17.90;99.90;;;;;;5073704;28;20033;-74
2023/08/18 08:07:46;;;;;;;32.22;16.33;;;17.90;99.90;;;;;;5065288;28;20110;-74
2023/08/18 08:10:12;;;;;;;28.02;16.05;;;17.90;99.90;;;;;;5066448;28;20170;-74
2023/08/18 08:12:39;;;;;;;28.63;14.18;;;17.90;99.90;;;;;;5065548;28;20067;-74
2023/08/18 08:15:07;;;;;;;30.10;17.25;;;18.00;99.90;;;;;;5063941;28;20049;-74
2023/08/18 08:17:42;;;;;;;29.20;16.00;;;18.00;99.90;;;;;;5066120;28;20050;-73
2023/08/18 08:20:14;;;;;;;34.20;16.75;;;18.00;99.90;;;;;;5070896;28;20432;-74
2023/08/18 08:22:39;;;;;;;37.35;19.48;;;18.00;99.90;;;;;;5065913;28;20529;-73
2023/08/18 08:25:05;;;;;;;30.05;17.33;;;18.00;99.90;;;;;;5062812;28;20045;-74
2023/08/18 08:27:31;;;;;;;37.30;16.15;;;18.00;99.90;;;;;;5070609;28;20052;-73
2023/08/18 08:29:57;;;;;;;29.42;17.20;;;18.00;99.90;;;;;;5055738;28;20041;-73
2023/08/18 08:32:25;;;;;;;28.33;16.50;;;18.00;99.90;;;;;;5065191;28;20060;-73
2023/08/18 08:34:51;;;;;;;30.65;16.88;;;18.00;99.90;;;;;;5073852;28;20405;-73
2023/08/18 08:37:17;;;;;;;35.10;17.73;;;18.10;99.90;;;;;;5064383;28;20393;-73
2023/08/18 08:39:43;;;;;;;34.00;17.25;;;18.20;99.90;;;;;;5056917;28;20028;-74
2023/08/18 08:42:09;;;;;;;31.40;16.20;;;18.20;99.90;;;;;;5065082;28;20420;-73
2023/08/18 08:44:35;;;;;;;26.95;16.95;;;18.30;99.90;;;;;;5054124;28;20051;-73
2023/08/18 08:47:01;;;;;;;31.80;16.85;;;18.30;99.90;;;;;;5064983;28;20495;-74
2023/08/18 08:49:29;;;;;;;29.42;16.10;;;18.30;99.90;;;;;;5070585;28;20045;-73
2023/08/18 08:52:01;;;;;;;25.00;15.93;;;18.40;99.90;;;;;;5061781;28;20041;-73
2023/08/18 08:54:29;;;;;;;29.60;15.97;;;18.40;99.90;;;;;;5056368;28;20392;-74
2023/08/18 08:56:59;;;;;;;23.02;14.82;;;18.40;99.90;;;;;;5056381;28;20295;-73
2023/08/18 08:59:25;;;;;;;28.40;14.63;;;18.50;99.90;;;;;;5062513;28;20076;-73
2023/08/18 09:01:52;;;;;;;20.40;12.90;;;18.50;99.90;;;;;;5059072;28;20080;-73
2023/08/18 09:04:18;;;;;;;22.65;13.63;;;18.50;99.90;;;;;;5062719;28;20087;-73
2023/08/18 09:06:45;;;;;;;29.33;15.27;;;18.60;99.90;;;;;;5080839;28;20075;-74
2023/08/18 09:09:18;;;;;;;26.02;14.55;;;18.60;99.90;;;;;;5065057;28;20048;-73
2023/08/18 09:11:48;;;;;;;24.00;14.18;;;18.70;99.90;;;;;;5064780;28;20495;-73
2023/08/18 09:14:23;;;;;;;25.30;14.82;;;18.70;99.90;;;;;;5062698;28;20400;-73
2023/08/18 09:16:49;;;;;;;24.05;13.48;;;18.70;99.90;;;;;;5054923;28;20037;-73
2023/08/18 09:19:15;;;;;;;21.52;14.15;;;18.80;99.90;;;;;;5065807;28;20373;-73
2023/08/18 09:21:41;;;;;;;24.45;15.45;;;18.70;99.90;;;;;;5054909;28;20076;-74
2023/08/18 09:24:09;;;;;;;27.02;15.60;;;18.80;99.90;;;;;;5061548;28;20112;-73
2023/08/18 09:26:35;;;;;;;26.70;16.50;;;18.90;99.90;;;;;;5077618;28;20071;-73
2023/08/18 09:29:02;;;;;;;27.23;16.90;;;18.90;99.90;;;;;;5077626;28;20053;-72
2023/08/18 09:31:30;;;;;;;25.58;16.45;;;18.90;99.90;;;;;;5060166;28;20052;-73
2023/08/18 09:33:56;;;;;;;25.38;17.02;;;19.00;99.90;;;;;;5065078;28;20127;-73
2023/08/18 09:36:22;;;;;;;27.85;17.60;;;19.00;99.90;;;;;;5061301;28;20076;-73
2023/08/18 09:38:48;;;;;;;27.17;16.60;;;19.00;99.90;;;;;;5061893;28;20072;-73
2023/08/18 09:41:13;;;;;;;29.92;16.85;;;19.00;99.90;;;;;;5069867;28;20493;-73
2023/08/18 09:43:41;;;;;;;31.00;17.70;;;19.00;99.90;;;;;;5076228;28;20564;-73
2023/08/18 09:46:12;;;;;;;25.98;16.35;;;19.00;99.90;;;;;;5061912;28;20500;-73
2023/08/18 09:48:38;;;;;;;32.47;18.08;;;19.10;99.90;;;;;;5075101;28;20048;-74
2023/08/18 09:51:09;;;;;;;22.02;16.35;;;19.20;99.90;;;;;;5054010;28;20041;-74
2023/08/18 09:53:39;;;;;;;22.52;14.93;;;19.20;99.90;;;;;;5068671;28;20040;-74
2023/08/18 09:56:14;;;;;;;22.40;14.63;;;19.20;99.90;;;;;;5072875;28;20047;-74
2023/08/18 09:58:55;;;;;;;24.88;14.43;;;19.20;99.90;;;;;;5072505;28;20044;-74
2023/08/18 10:01:36;;;;;;;22.75;15.75;;;19.30;99.90;;;;;;5072561;28;20123;-73
2023/08/18 10:04:02;;;;;;;21.95;15.13;;;19.40;99.90;;;;;;5066294;28;20523;-74
2023/08/18 10:06:30;;;;;;;22.05;15.38;;;19.30;99.90;;;;;;5062977;28;20076;-74
2023/08/18 10:08:57;;;;;;;25.15;15.88;;;19.30;99.90;;;;;;5060896;28;20130;-73
2023/08/18 10:11:23;;;;;;;23.08;14.75;;;19.40;99.90;;;;;;5056235;28;20036;-74
2023/08/18 10:13:51;;;;;;;22.63;16.02;;;19.40;99.90;;;;;;5063097;28;20476;-73
2023/08/18 10:16:18;;;;;;;24.30;16.20;;;19.30;99.90;;;;;;5062723;28;20470;-74
2023/08/18 10:18:43;;;;;;;27.77;15.65;;;19.40;99.90;;;;;;5062301;28;20037;-74
2023/08/18 10:21:10;;;;;;;22.35;15.73;;;19.40;99.90;;;;;;5072289;28;20059;-73
2023/08/18 10:23:40;;;;;;;23.00;15.18;;;19.40;99.90;;;;;;5062994;28;20037;-74
2023/08/18 10:26:06;;;;;;;22.35;15.10;;;19.50;99.90;;;;;;5064847;28;20472;-74
2023/08/18 10:28:34;;;;;;;24.40;15.73;;;19.50;99.90;;;;;;5064259;28;20492;-73
2023/08/18 10:31:09;;;;;;;22.40;15.52;;;19.50;99.90;;;;;;5057303;28;20485;-74
2023/08/18 10:33:43;;;;;;;22.92;15.07;;;19.50;99.90;;;;;;5052127;28;20057;-72
2023/08/18 10:36:09;;;;;;;23.70;15.90;;;19.50;99.90;;;;;;5051961;28;20520;-72
2023/08/18 10:38:36;;;;;;;22.05;13.90;;;19.50;99.90;;;;;;5051916;28;20048;-73
2023/08/18 10:41:02;;;;;;;25.08;14.57;;;19.60;99.90;;;;;;5052829;28;20060;-73
2023/08/18 10:43:28;;;;;;;19.20;13.80;;;19.70;99.90;;;;;;5052068;28;20390;-73
2023/08/18 10:46:01;;;;;;;23.25;15.15;;;19.80;99.90;;;;;;5068604;28;20401;-74
2023/08/18 10:48:33;;;;;;;24.15;15.43;;;19.80;99.90;;;;;;5087224;28;20041;-73
2023/08/18 10:51:02;;;;;;;23.95;15.25;;;19.80;99.90;;;;;;5063847;28;20044;-73
2023/08/18 10:53:40;;;;;;;24.52;14.02;;;19.70;99.90;;;;;;5077235;28;20489;-73
2023/08/18 10:56:06;;;;;;;23.10;15.48;;;19.80;99.90;;;;;;5053386;28;20484;-73
2023/08/18 10:58:32;;;;;;;20.98;14.38;;;19.90;99.90;;;;;;5062722;28;20477;-73
2023/08/18 11:00:59;;;;;;;20.77;14.98;;;20.00;99.90;;;;;;5054248;28;20539;-74
2023/08/18 11:03:28;;;;;;;24.17;14.75;;;19.90;99.90;;;;;;5051958;28;20094;-73
2023/08/18 11:05:54;;;;;;;28.67;16.33;;;20.00;99.90;;;;;;5052896;28;20447;-73
2023/08/18 11:08:20;;;;;;;24.02;15.43;;;20.00;99.90;;;;;;5051635;28;20138;-73
2023/08/18 11:10:46;;;;;;;23.35;16.55;;;20.10;99.90;;;;;;5051627;28;20427;-72
2023/08/18 11:13:30;;;;;;;23.67;15.77;;;20.10;99.90;;;;;;5052871;28;20239;-73
2023/08/18 11:15:57;;;;;;;24.88;15.30;;;20.10;99.90;;;;;;5051922;28;20047;-73
2023/08/18 11:18:23;;;;;;;22.75;16.10;;;20.10;99.90;;;;;;5051844;28;20057;-73
2023/08/18 11:20:51;;;;;;;30.05;17.27;;;20.10;99.90;;;;;;5051592;28;20126;-74
2023/08/18 11:23:17;;;;;;;24.15;15.27;;;20.10;99.90;;;;;;5051574;28;20056;-72
2023/08/18 11:25:44;;;;;;;23.63;16.92;;;20.20;99.90;;;;;;5053138;28;20040;-74
2023/08/18 11:28:11;;;;;;;22.40;17.20;;;20.20;99.90;;;;;;5070798;28;20063;-74
2023/08/18 11:30:37;;;;;;;24.83;16.98;;;20.20;99.90;;;;;;5082687;28;20040;-74
2023/08/18 11:33:03;;;;;;;22.88;17.20;;;20.30;99.90;;;;;;5063824;28;20052;-74
2023/08/18 11:35:30;;;;;;;24.30;17.58;;;20.30;99.90;;;;;;5053963;28;20044;-74
2023/08/18 11:37:57;;;;;;;22.92;16.42;;;20.30;99.90;;;;;;5062686;28;20037;-73
2023/08/18 11:40:23;;;;;;;21.95;17.10;;;20.30;99.90;;;;;;5051296;28;20037;-73
2023/08/18 11:42:51;;;;;;;25.58;17.67;;;20.30;99.90;;;;;;5057974;28;20067;-74
2023/08/18 11:45:24;;;;;;;23.90;16.33;;;20.30;99.90;;;;;;5059789;28;20033;-74
2023/08/18 11:48:03;;;;;;;25.35;17.35;;;20.30;99.90;;;;;;5062219;28;20059;-74
2023/08/18 11:50:39;;;;;;;24.33;16.60;;;20.30;99.90;;;;;;5062694;28;20538;-74
2023/08/18 11:53:07;;;;;;;25.05;16.90;;;20.30;99.90;;;;;;5062724;28;20124;-74
2023/08/18 11:55:39;;;;;;;24.45;16.85;;;20.20;99.90;;;;;;5062347;28;20052;-74
2023/08/18 11:58:14;;;;;;;23.40;16.77;;;20.30;99.90;;;;;;5062114;28;20052;-74
2023/08/18 12:00:42;;;;;;;20.98;15.40;;;20.20;99.90;;;;;;5055254;28;20071;-73
2023/08/18 12:03:23;;;;;;;22.20;15.02;;;20.30;99.90;;;;;;5055104;28;20123;-74
2023/08/18 12:05:49;;;;;;;22.55;16.40;;;20.40;99.90;;;;;;5054822;28;20045;-72
2023/08/18 12:08:17;;;;;;;22.17;16.58;;;20.40;99.90;;;;;;5054781;28;20036;-73
2023/08/18 12:10:44;;;;;;;22.35;15.18;;;20.50;99.90;;;;;;5072410;28;20070;-71
2023/08/18 12:13:10;;;;;;;25.00;15.57;;;20.50;99.90;;;;;;5074930;28;20060;-72
2023/08/18 12:15:36;;;;;;;21.42;15.00;;;20.60;99.90;;;;;;5091452;28;20040;-73
2023/08/18 12:18:01;;;;;;;22.65;16.35;;;20.70;99.90;;;;;;5091812;28;20036;-72
2023/08/18 12:20:27;;;;;;;21.90;15.43;;;20.90;99.90;;;;;;5091603;28;20688;-74
2023/08/18 12:22:53;;;;;;;19.50;15.05;;;20.80;99.90;;;;;;5075968;28;20399;-75
2023/08/18 12:25:23;;;;;;;22.83;16.25;;;20.70;99.90;;;;;;5076030;28;20044;-72
2023/08/18 12:27:49;;;;;;;20.35;16.55;;;20.80;99.90;;;;;;5091383;28;20041;-73
2023/08/18 12:30:16;;;;;;;25.20;16.70;;;20.70;99.90;;;;;;5075830;28;20051;-73
2023/08/18 12:32:43;;;;;;;24.42;16.23;;;20.70;99.90;;;;;;5074174;28;20048;-73
2023/08/18 12:35:10;;;;;;;23.27;14.95;;;20.80;99.90;;;;;;5091097;28;20060;-73